Time;durP1;ratioP1;P1;durP2;ratioP2;P2;SDS_P1;SDS_P2;PMS_P1;PMS_P2;Temp;Humidity;BMP_temperature;BMP_pressure;BME280_temperature;BME280_humidity;BME280_pressure;Samples;Min_cycle;Max_cycle;Signal;HPM_P1;HPM_P2
2023/03/05 06:13:00;;;;;;;15.88;8.73;;;;;;;;;;5098961;28;20101;-46
2023/03/05 06:15:26;;;;;;;16.58;8.73;;;;;;;;;;5086815;28;20028;-45
2023/03/05 06:17:53;;;;;;;13.98;8.43;;;;;;;;;;5087316;28;20024;-45
2023/03/05 06:20:19;;;;;;;14.25;7.63;;;;;;;;;;5087289;28;20077;-47
2023/03/05 06:22:45;;;;;;;15.07;7.82;;;;;;;;;;5086846;28;20224;-48
2023/03/05 06:25:11;;;;;;;13.40;7.43;;;;;;;;;;5104112;28;20035;-45
2023/03/05 06:27:39;;;;;;;15.10;7.95;;;;;;;;;;5107531;28;20028;-45
2023/03/05 06:30:05;;;;;;;15.20;8.05;;;;;;;;;;5107344;28;20038;-48
2023/03/05 06:32:32;;;;;;;14.18;7.93;;;;;;;;;;5107322;28;20405;-46
2023/03/05 06:34:58;;;;;;;15.93;8.82;;;;;;;;;;5107184;28;20604;-47
2023/03/05 06:37:25;;;;;;;16.75;8.60;;;;;;;;;;5107366;28;20058;-45
2023/03/05 06:39:52;;;;;;;16.33;9.30;;;;;;;;;;5107229;28;20080;-46
2023/03/05 06:42:18;;;;;;;17.85;9.82;;;;;;;;;;5108017;28;20026;-46
2023/03/05 06:44:44;;;;;;;17.95;10.27;;;;;;;;;;5106845;28;20031;-46
2023/03/05 06:47:10;;;;;;;21.08;11.20;;;;;;;;;;5107612;28;20042;-47
2023/03/05 06:49:37;;;;;;;25.42;13.15;;;;;;;;;;5109610;28;20023;-49
2023/03/05 06:52:04;;;;;;;19.00;10.43;;;;;;;;;;5110387;28;20410;-49
2023/03/05 06:54:30;;;;;;;18.50;10.25;;;;;;;;;;5110018;28;20046;-46
2023/03/05 06:56:56;;;;;;;20.40;10.88;;;;;;;;;;5107207;28;20525;-47
2023/03/05 06:59:22;;;;;;;18.23;9.98;;;;;;;;;;5107776;28;20027;-49
2023/03/05 07:01:48;;;;;;;19.45;10.00;;;;;;;;;;5107715;28;20050;-48
2023/03/05 07:04:14;;;;;;;16.30;9.48;;;;;;;;;;5107248;28;20024;-48
2023/03/05 07:06:41;;;;;;;17.52;9.57;;;;;;;;;;5107267;28;20038;-46
2023/03/05 07:09:07;;;;;;;16.23;9.65;;;;;;;;;;5107334;28;20095;-50
2023/03/05 07:11:34;;;;;;;22.25;10.93;;;;;;;;;;5107384;28;20396;-47
2023/03/05 07:14:00;;;;;;;19.83;10.80;;;;;;;;;;5122805;28;20031;-46
2023/03/05 07:16:28;;;;;;;20.15;10.50;;;;;;;;;;5127873;28;20454;-50
2023/03/05 07:18:56;;;;;;;25.00;11.85;;;;;;;;;;5127568;28;20076;-46
2023/03/05 07:21:23;;;;;;;20.02;10.63;;;;;;;;;;5127764;27;20027;-46
2023/03/05 07:23:49;;;;;;;20.48;10.70;;;;;;;;;;5130512;27;20406;-46
2023/03/05 07:26:16;;;;;;;21.20;11.30;;;;;;;;;;5131474;27;20031;-46
2023/03/05 07:28:42;;;;;;;20.65;10.80;;;;;;;;;;5131388;27;20027;-46
2023/03/05 07:31:13;;;;;;;22.45;11.48;;;;;;;;;;5131400;27;20046;-49
2023/03/05 07:33:39;;;;;;;21.02;11.45;;;;;;;;;;5131581;27;20464;-47
2023/03/05 07:36:09;;;;;;;19.40;10.25;;;;;;;;;;5131426;27;20046;-47
2023/03/05 07:38:36;;;;;;;18.30;10.18;;;;;;;;;;5131528;27;20035;-46
2023/03/05 07:41:03;;;;;;;18.02;9.63;;;;;;;;;;5131163;27;20055;-45
2023/03/05 07:43:29;;;;;;;18.55;9.55;;;;;;;;;;5130818;27;20023;-47
2023/03/05 07:45:55;;;;;;;21.40;10.60;;;;;;;;;;5130272;27;20100;-46
2023/03/05 07:48:21;;;;;;;17.95;9.93;;;;;;;;;;5131233;27;20026;-46
2023/03/05 07:50:48;;;;;;;18.30;9.38;;;;;;;;;;5131469;27;20270;-45
2023/03/05 07:53:15;;;;;;;17.58;9.75;;;;;;;;;;5131253;27;20026;-46
2023/03/05 07:55:42;;;;;;;17.70;9.25;;;;;;;;;;5131610;27;20035;-46
2023/03/05 07:58:08;;;;;;;15.88;9.38;;;;;;;;;;5131301;27;20023;-47
2023/03/05 08:00:34;;;;;;;17.65;9.10;;;;;;;;;;5130557;27;20023;-46
2023/03/05 08:03:00;;;;;;;15.52;9.30;;;;;;;;;;5131128;27;20541;-48
2023/03/05 08:05:26;;;;;;;17.00;8.88;;;;;;;;;;5130861;27;20110;-46
2023/03/05 08:07:53;;;;;;;17.02;9.48;;;;;;;;;;5130693;27;20030;-46
2023/03/05 08:10:19;;;;;;;18.90;9.07;;;;;;;;;;5130593;27;20374;-47
2023/03/05 08:12:45;;;;;;;15.63;9.65;;;;;;;;;;5123519;27;20040;-47
2023/03/05 08:15:11;;;;;;;18.60;10.10;;;;;;;;;;5107205;28;20080;-48
2023/03/05 08:17:37;;;;;;;19.20;9.70;;;;;;;;;;5098096;28;20034;-46
2023/03/05 08:20:04;;;;;;;19.77;10.32;;;;;;;;;;5088479;28;20016;-50
2023/03/05 08:22:33;;;;;;;15.48;8.93;;;;;;;;;;5108807;28;20031;-49
2023/03/05 08:25:00;;;;;;;20.05;9.88;;;;;;;;;;5110037;28;20452;-48
2023/03/05 08:27:26;;;;;;;15.88;9.13;;;;;;;;;;5108871;28;20394;-47
2023/03/05 08:29:52;;;;;;;18.15;10.18;;;;;;;;;;5109216;28;20030;-47
2023/03/05 08:32:18;;;;;;;19.83;9.68;;;;;;;;;;5109247;28;20024;-45
2023/03/05 08:34:44;;;;;;;17.60;10.13;;;;;;;;;;5107809;28;20755;-45
2023/03/05 08:37:10;;;;;;;17.50;9.82;;;;;;;;;;5107882;28;20087;-43
2023/03/05 08:39:37;;;;;;;20.85;9.93;;;;;;;;;;5109017;28;20031;-45
2023/03/05 08:42:03;;;;;;;18.25;9.27;;;;;;;;;;5109445;28;20486;-44
2023/03/05 08:44:29;;;;;;;16.75;9.40;;;;;;;;;;5107979;28;20352;-48
2023/03/05 08:46:55;;;;;;;14.27;8.57;;;;;;;;;;5109053;28;20379;-44
2023/03/05 08:49:21;;;;;;;16.75;9.60;;;;;;;;;;5108723;28;20375;-44
2023/03/05 08:51:47;;;;;;;16.77;9.20;;;;;;;;;;5107907;28;20510;-45
2023/03/05 08:54:13;;;;;;;16.92;9.57;;;;;;;;;;5108885;28;20100;-43
2023/03/05 08:56:40;;;;;;;15.85;9.63;;;;;;;;;;5108875;28;20031;-46
2023/03/05 08:59:07;;;;;;;17.42;9.18;;;;;;;;;;5108593;28;20024;-45
2023/03/05 09:01:33;;;;;;;15.65;8.55;;;;;;;;;;5108105;28;20126;-45
2023/03/05 09:03:59;;;;;;;18.83;9.20;;;;;;;;;;5109384;28;20397;-45
2023/03/05 09:06:25;;;;;;;17.33;8.65;;;;;;;;;;5108541;28;20478;-44
2023/03/05 09:08:51;;;;;;;17.60;8.85;;;;;;;;;;5109859;27;20023;-44
2023/03/05 09:11:17;;;;;;;16.98;9.70;;;;;;;;;;5107389;28;20453;-46
2023/03/05 09:13:44;;;;;;;19.52;9.82;;;;;;;;;;5121226;27;20041;-46
2023/03/05 09:16:14;;;;;;;22.50;10.73;;;;;;;;;;5129218;27;20208;-45
2023/03/05 09:18:41;;;;;;;20.65;10.48;;;;;;;;;;5129218;27;20035;-47
2023/03/05 09:21:08;;;;;;;20.23;11.63;;;;;;;;;;5128344;27;20042;-45
2023/03/05 09:23:34;;;;;;;22.23;11.27;;;;;;;;;;5128989;27;20051;-46
2023/03/05 09:26:01;;;;;;;18.27;10.27;;;;;;;;;;5129686;27;20042;-46
2023/03/05 09:28:27;;;;;;;20.95;10.75;;;;;;;;;;5127746;27;20127;-45
2023/03/05 09:30:54;;;;;;;17.35;9.90;;;;;;;;;;5127336;27;20600;-45
2023/03/05 09:33:20;;;;;;;18.88;10.15;;;;;;;;;;5127408;27;20020;-44
2023/03/05 09:35:47;;;;;;;18.70;10.07;;;;;;;;;;5127447;27;20126;-45
2023/03/05 09:38:13;;;;;;;20.83;10.52;;;;;;;;;;5123873;27;20015;-46
2023/03/05 09:40:45;;;;;;;26.38;12.60;;;;;;;;;;5127489;27;20027;-47
2023/03/05 09:43:22;;;;;;;24.92;12.45;;;;;;;;;;5107848;28;20027;-48
2023/03/05 09:46:10;;;;;;;21.85;11.00;;;;;;;;;;5125995;27;20023;-48
2023/03/05 09:48:39;;;;;;;19.33;10.45;;;;;;;;;;5122657;27;20019;-48
2023/03/05 09:51:12;;;;;;;20.15;10.57;;;;;;;;;;5124132;27;20027;-47
2023/03/05 09:53:42;;;;;;;20.58;9.98;;;;;;;;;;5128203;27;20482;-48
2023/03/05 09:56:23;;;;;;;18.02;9.77;;;;;;;;;;5108022;27;20490;-45
2023/03/05 09:58:52;;;;;;;23.45;12.32;;;;;;;;;;5107804;27;20023;-46
2023/03/05 10:01:20;;;;;;;25.10;11.55;;;;;;;;;;5127104;27;20046;-46
2023/03/05 10:03:52;;;;;;;22.05;11.18;;;;;;;;;;5126847;27;20031;-47
2023/03/05 10:06:29;;;;;;;19.85;10.20;;;;;;;;;;5117582;27;20506;-45
2023/03/05 10:08:57;;;;;;;17.73;10.70;;;;;;;;;;5128021;27;20424;-47
2023/03/05 10:11:26;;;;;;;20.83;9.70;;;;;;;;;;5124073;27;20106;-46
2023/03/05 10:13:52;;;;;;;19.55;10.30;;;;;;;;;;5110200;27;20032;-46
2023/03/05 10:16:18;;;;;;;22.40;11.13;;;;;;;;;;5104834;28;20032;-45
2023/03/05 10:18:59;;;;;;;21.80;10.98;;;;;;;;;;5107467;28;20023;-47
2023/03/05 10:21:26;;;;;;;21.95;11.80;;;;;;;;;;5108482;28;20023;-45
2023/03/05 10:24:15;;;;;;;23.38;12.07;;;;;;;;;;5107050;28;20053;-48
2023/03/05 10:27:01;;;;;;;22.98;11.82;;;;;;;;;;5097932;28;20122;-48
2023/03/05 10:29:49;;;;;;;21.70;11.35;;;;;;;;;;5105597;28;20030;-45
2023/03/05 10:32:23;;;;;;;21.48;11.25;;;;;;;;;;5106168;28;20439;-44
2023/03/05 10:35:01;;;;;;;24.48;12.48;;;;;;;;;;5106859;28;20081;-44
2023/03/05 10:37:42;;;;;;;24.95;12.48;;;;;;;;;;5105926;28;20042;-45
2023/03/05 10:40:14;;;;;;;21.58;11.20;;;;;;;;;;5107131;28;20027;-46
2023/03/05 10:42:47;;;;;;;22.95;12.10;;;;;;;;;;5106440;28;20028;-45
2023/03/05 10:45:16;;;;;;;22.25;11.93;;;;;;;;;;5108038;28;20069;-48
2023/03/05 10:48:02;;;;;;;20.30;11.55;;;;;;;;;;5107408;28;20444;-47
2023/03/05 10:50:35;;;;;;;20.92;10.13;;;;;;;;;;5102357;28;20332;-46
2023/03/05 10:53:00;;;;;;;19.40;10.00;;;;;;;;;;5105079;28;20035;-45
2023/03/05 10:55:27;;;;;;;18.52;10.48;;;;;;;;;;5125330;27;20023;-44
2023/03/05 10:57:53;;;;;;;17.95;9.88;;;;;;;;;;5124766;27;20035;-45
2023/03/05 11:00:24;;;;;;;17.67;9.75;;;;;;;;;;5110771;28;20080;-47
2023/03/05 11:02:54;;;;;;;22.52;11.57;;;;;;;;;;5109149;28;20028;-46
2023/03/05 11:05:35;;;;;;;24.15;11.95;;;;;;;;;;5109896;28;20084;-46
2023/03/05 11:08:17;;;;;;;23.10;11.07;;;;;;;;;;5110874;28;20089;-46
2023/03/05 11:10:43;;;;;;;29.75;15.00;;;;;;;;;;5111291;28;20055;-47
2023/03/05 11:13:29;;;;;;;30.17;14.57;;;;;;;;;;5119028;27;20065;-47
2023/03/05 11:15:59;;;;;;;25.13;12.73;;;;;;;;;;5130922;27;20023;-46
2023/03/05 11:18:30;;;;;;;24.55;12.95;;;;;;;;;;5131167;27;20036;-45
2023/03/05 11:21:06;;;;;;;23.80;12.23;;;;;;;;;;5131275;27;20022;-45
2023/03/05 11:23:32;;;;;;;22.10;11.90;;;;;;;;;;5131025;27;20410;-44
2023/03/05 11:26:07;;;;;;;25.98;12.85;;;;;;;;;;5131233;27;20020;-46
2023/03/05 11:28:35;;;;;;;26.25;13.00;;;;;;;;;;5130751;27;20027;-47
2023/03/05 11:31:01;;;;;;;25.60;12.00;;;;;;;;;;5129885;27;20019;-45
2023/03/05 11:33:28;;;;;;;23.80;12.88;;;;;;;;;;5129573;27;20102;-45
2023/03/05 11:36:16;;;;;;;28.73;14.40;;;;;;;;;;5129771;27;20047;-45
2023/03/05 11:38:50;;;;;;;26.70;13.32;;;;;;;;;;5121114;27;20051;-45
2023/03/05 11:41:16;;;;;;;;;;;;;;;;;;5131389;27;20106;-45
2023/03/05 11:43:43;;;;;;;31.55;15.77;;;;;;;;;;5130774;27;20461;-45
2023/03/05 11:46:11;;;;;;;27.83;13.73;;;;;;;;;;5130963;27;20091;-48
2023/03/05 11:48:39;;;;;;;31.13;15.93;;;;;;;;;;5129915;27;20026;-45
2023/03/05 11:51:14;;;;;;;27.80;13.32;;;;;;;;;;5123382;27;20587;-46
2023/03/05 11:53:42;;;;;;;26.95;13.20;;;;;;;;;;5128871;27;20079;-45
2023/03/05 11:56:19;;;;;;;32.40;15.07;;;;;;;;;;5124409;27;20034;-45
2023/03/05 11:58:57;;;;;;;31.75;13.77;;;;;;;;;;5130057;27;20023;-45
2023/03/05 12:01:24;;;;;;;33.20;15.57;;;;;;;;;;5129701;27;20051;-45
2023/03/05 12:03:52;;;;;;;32.17;15.05;;;;;;;;;;5130056;27;20030;-46
2023/03/05 12:06:36;;;;;;;31.85;16.17;;;;;;;;;;5130550;27;20066;-45
2023/03/05 12:09:06;;;;;;;33.20;15.50;;;;;;;;;;5111208;27;20406;-46
2023/03/05 12:11:33;;;;;;;29.00;14.45;;;;;;;;;;5109749;28;20039;-47
2023/03/05 12:14:11;;;;;;;29.38;14.38;;;;;;;;;;5095852;28;20059;-43
2023/03/05 12:16:40;;;;;;;24.83;13.75;;;;;;;;;;5107050;28;20123;-45
2023/03/05 12:19:18;;;;;;;23.05;12.70;;;;;;;;;;5109809;28;20088;-45
2023/03/05 12:21:48;;;;;;;31.13;15.75;;;;;;;;;;5106702;28;20028;-44
2023/03/05 12:24:23;;;;;;;28.95;15.63;;;;;;;;;;5113488;27;20027;-47
2023/03/05 12:26:52;;;;;;;25.00;13.32;;;;;;;;;;5108794;27;20102;-48
2023/03/05 12:29:27;;;;;;;32.38;16.30;;;;;;;;;;5107573;28;20030;-45
2023/03/05 12:31:53;;;;;;;40.05;20.50;;;;;;;;;;5107754;28;20030;-47
2023/03/05 12:34:38;;;;;;;38.42;20.30;;;;;;;;;;5106417;28;20499;-45
2023/03/05 12:37:09;;;;;;;36.42;19.45;;;;;;;;;;5106962;28;20031;-46
2023/03/05 12:39:46;;;;;;;29.23;16.13;;;;;;;;;;5108149;28;20027;-48
2023/03/05 12:42:32;;;;;;;31.40;15.50;;;;;;;;;;5107391;28;20031;-46
2023/03/05 12:45:14;;;;;;;27.10;14.32;;;;;;;;;;5096691;28;20060;-45
2023/03/05 12:47:41;;;;;;;25.27;13.95;;;;;;;;;;5106119;28;20035;-48
2023/03/05 12:50:26;;;;;;;24.92;13.57;;;;;;;;;;5105972;28;20024;-47
2023/03/05 12:52:52;;;;;;;;;;;;;;;;;;5100708;28;20031;-45
2023/03/05 12:55:34;;;;;;;23.42;12.88;;;;;;;;;;5087306;28;20323;-45
2023/03/05 12:58:12;;;;;;;28.13;14.60;;;;;;;;;;5104065;28;20023;-47
2023/03/05 13:00:39;;;;;;;26.75;13.90;;;;;;;;;;5100948;28;20528;-45
2023/03/05 13:03:09;;;;;;;24.33;13.60;;;;;;;;;;5105433;28;20031;-46
2023/03/05 13:05:36;;;;;;;26.38;14.35;;;;;;;;;;5092027;28;20042;-46
2023/03/05 13:08:12;;;;;;;27.88;15.15;;;;;;;;;;5105770;28;20023;-46
2023/03/05 13:10:39;;;;;;;31.85;17.40;;;;;;;;;;5104842;28;20114;-48
2023/03/05 13:13:05;;;;;;;26.77;14.75;;;;;;;;;;5112949;27;20025;-49
2023/03/05 13:15:32;;;;;;;29.05;15.40;;;;;;;;;;5125192;27;20081;-49
2023/03/05 13:17:59;;;;;;;25.25;13.77;;;;;;;;;;5124980;27;20622;-47
2023/03/05 13:20:28;;;;;;;21.40;12.75;;;;;;;;;;5125600;27;20030;-49
2023/03/05 13:23:17;;;;;;;29.60;15.38;;;;;;;;;;5125765;27;20031;-47
2023/03/05 13:25:43;;;;;;;27.70;15.32;;;;;;;;;;5117058;27;20398;-46
2023/03/05 13:28:14;;;;;;;26.17;14.45;;;;;;;;;;5107365;27;20077;-46
2023/03/05 13:30:44;;;;;;;24.35;12.43;;;;;;;;;;5124658;27;20088;-46
2023/03/05 13:33:16;;;;;;;20.33;11.68;;;;;;;;;;5125645;27;20035;-45
2023/03/05 13:35:46;;;;;;;17.73;10.48;;;;;;;;;;5125275;27;20422;-49
2023/03/05 13:38:35;;;;;;;20.02;10.98;;;;;;;;;;5125319;27;20080;-44
2023/03/05 13:41:03;;;;;;;17.10;9.70;;;;;;;;;;5093669;27;20059;-46
2023/03/05 13:43:29;;;;;;;17.10;9.45;;;;;;;;;;5125376;27;20550;-45
2023/03/05 13:45:55;;;;;;;18.55;10.05;;;;;;;;;;5125590;27;20023;-46
2023/03/05 13:48:21;;;;;;;17.10;9.05;;;;;;;;;;5125697;27;20023;-47
2023/03/05 13:50:53;;;;;;;17.05;10.23;;;;;;;;;;5124416;27;20095;-46
2023/03/05 13:53:22;;;;;;;26.45;14.32;;;;;;;;;;5125685;27;20591;-47
2023/03/05 13:55:49;;;;;;;23.10;12.95;;;;;;;;;;5117578;27;20019;-47
2023/03/05 13:58:34;;;;;;;23.52;13.43;;;;;;;;;;5123995;27;20104;-46
2023/03/05 14:01:04;;;;;;;22.83;12.80;;;;;;;;;;5124085;27;20030;-45
2023/03/05 14:03:31;;;;;;;24.95;13.27;;;;;;;;;;5125135;27;20037;-46
2023/03/05 14:05:58;;;;;;;20.98;12.00;;;;;;;;;;5125505;27;20072;-46
2023/03/05 14:08:25;;;;;;;25.88;14.68;;;;;;;;;;5124281;27;20034;-45
2023/03/05 14:10:52;;;;;;;27.40;14.60;;;;;;;;;;5123329;27;20098;-44
2023/03/05 14:13:19;;;;;;;25.13;13.30;;;;;;;;;;5116897;27;20608;-47
2023/03/05 14:16:04;;;;;;;22.60;12.82;;;;;;;;;;5124525;27;20416;-46
2023/03/05 14:18:31;;;;;;;20.38;11.55;;;;;;;;;;5121685;27;20037;-46
2023/03/05 14:21:02;;;;;;;18.17;10.18;;;;;;;;;;5124815;27;20035;-45
2023/03/05 14:23:37;;;;;;;18.33;10.52;;;;;;;;;;5123194;27;20486;-45
2023/03/05 14:26:21;;;;;;;17.13;9.00;;;;;;;;;;5124292;27;20040;-48
2023/03/05 14:29:04;;;;;;;14.35;8.65;;;;;;;;;;5123926;27;20039;-44
2023/03/05 14:31:34;;;;;;;18.48;9.68;;;;;;;;;;5124058;27;20084;-47
2023/03/05 14:34:03;;;;;;;20.08;10.88;;;;;;;;;;5123913;27;20529;-46
2023/03/05 14:36:30;;;;;;;22.73;12.85;;;;;;;;;;5122687;27;20521;-44
2023/03/05 14:38:56;;;;;;;28.25;15.32;;;;;;;;;;5124186;28;20023;-45
2023/03/05 14:41:39;;;;;;;23.48;12.95;;;;;;;;;;5122446;28;20042;-46
2023/03/05 14:44:12;;;;;;;25.05;13.18;;;;;;;;;;5121295;28;20054;-45
2023/03/05 14:46:38;;;;;;;21.90;11.60;;;;;;;;;;5122773;28;20590;-49
2023/03/05 14:49:04;;;;;;;30.77;15.10;;;;;;;;;;5123496;28;20054;-46
2023/03/05 14:51:32;;;;;;;23.52;12.55;;;;;;;;;;5124880;27;20019;-45
2023/03/05 14:53:58;;;;;;;19.92;11.43;;;;;;;;;;5123649;28;20023;-46
2023/03/05 14:56:27;;;;;;;21.45;11.30;;;;;;;;;;5123923;28;20023;-46
2023/03/05 14:58:56;;;;;;;24.35;11.60;;;;;;;;;;5124350;27;20031;-46
2023/03/05 15:01:23;;;;;;;28.90;13.75;;;;;;;;;;5123886;28;20478;-46
2023/03/05 15:03:51;;;;;;;24.67;12.10;;;;;;;;;;5124274;28;20118;-45
2023/03/05 15:06:17;;;;;;;25.92;11.93;;;;;;;;;;5124652;28;20094;-46
2023/03/05 15:08:43;;;;;;;29.08;14.38;;;;;;;;;;5124754;27;20109;-46
2023/03/05 15:11:09;;;;;;;25.30;13.65;;;;;;;;;;5123963;28;20050;-48
2023/03/05 15:13:35;;;;;;;25.92;13.57;;;;;;;;;;5124234;27;20499;-47
2023/03/05 15:16:01;;;;;;;22.95;12.80;;;;;;;;;;5124379;28;20019;-46
2023/03/05 15:18:27;;;;;;;23.33;12.77;;;;;;;;;;5125800;27;20467;-44
2023/03/05 15:20:56;;;;;;;21.20;10.57;;;;;;;;;;5124794;28;20015;-46
2023/03/05 15:23:22;;;;;;;25.83;13.02;;;;;;;;;;5124151;27;20020;-45
2023/03/05 15:25:48;;;;;;;26.83;13.48;;;;;;;;;;5124396;28;20023;-46
2023/03/05 15:28:14;;;;;;;27.02;14.73;;;;;;;;;;5124533;28;20429;-47
2023/03/05 15:30:42;;;;;;;22.27;10.90;;;;;;;;;;5124906;28;20088;-45
2023/03/05 15:33:09;;;;;;;17.85;10.52;;;;;;;;;;5111933;27;20051;-46
2023/03/05 15:35:36;;;;;;;16.80;9.38;;;;;;;;;;5124743;27;20501;-45
2023/03/05 15:38:02;;;;;;;17.27;9.48;;;;;;;;;;5125399;28;20156;-46
2023/03/05 15:40:28;;;;;;;17.15;9.85;;;;;;;;;;5126136;28;20094;-45
2023/03/05 15:42:55;;;;;;;16.35;9.50;;;;;;;;;;5126229;28;20132;-45
2023/03/05 15:45:21;;;;;;;16.75;9.60;;;;;;;;;;5129571;27;20067;-46
2023/03/05 15:47:50;;;;;;;14.45;8.77;;;;;;;;;;5129957;27;20030;-47
2023/03/05 15:50:17;;;;;;;20.45;10.43;;;;;;;;;;5129944;27;20072;-46
2023/03/05 15:52:43;;;;;;;18.75;10.93;;;;;;;;;;5129845;27;20084;-49
2023/03/05 15:55:09;;;;;;;23.67;13.30;;;;;;;;;;5128758;27;20023;-45
2023/03/05 15:57:36;;;;;;;16.88;10.65;;;;;;;;;;5127148;27;20455;-46
2023/03/05 16:00:05;;;;;;;17.15;9.60;;;;;;;;;;5125233;27;20048;-44
2023/03/05 16:02:31;;;;;;;16.92;9.70;;;;;;;;;;5128705;27;20043;-45
2023/03/05 16:04:57;;;;;;;18.88;10.40;;;;;;;;;;5123645;27;20491;-44
2023/03/05 16:07:23;;;;;;;15.13;8.23;;;;;;;;;;5120197;27;20689;-45
2023/03/05 16:09:51;;;;;;;12.20;8.15;;;;;;;;;;5128040;27;20019;-45
2023/03/05 16:12:22;;;;;;;13.77;8.52;;;;;;;;;;5127871;27;20124;-48
2023/03/05 16:14:49;;;;;;;14.25;8.30;;;;;;;;;;5121105;27;20038;-46
2023/03/05 16:17:15;;;;;;;13.55;8.75;;;;;;;;;;5126790;27;20484;-47
2023/03/05 16:19:43;;;;;;;13.45;8.10;;;;;;;;;;5127768;27;20080;-47
2023/03/05 16:22:09;;;;;;;15.30;9.40;;;;;;;;;;5120756;27;20669;-45
2023/03/05 16:24:35;;;;;;;14.40;8.43;;;;;;;;;;5126138;27;20015;-46
2023/03/05 16:27:03;;;;;;;13.10;8.18;;;;;;;;;;5127750;27;20027;-46
2023/03/05 16:29:31;;;;;;;15.48;8.60;;;;;;;;;;5127290;27;20497;-45
2023/03/05 16:31:57;;;;;;;14.13;8.60;;;;;;;;;;5126694;27;20080;-45
2023/03/05 16:34:23;;;;;;;15.10;9.07;;;;;;;;;;5128187;27;20401;-48
2023/03/05 16:36:51;;;;;;;16.50;9.73;;;;;;;;;;5127574;27;20027;-45
2023/03/05 16:39:18;;;;;;;15.82;9.50;;;;;;;;;;5126039;27;20026;-47
2023/03/05 16:41:44;;;;;;;15.90;9.48;;;;;;;;;;5127222;27;20504;-45
2023/03/05 16:44:10;;;;;;;17.63;9.48;;;;;;;;;;5126955;27;20035;-46
2023/03/05 16:46:37;;;;;;;14.18;8.45;;;;;;;;;;5126529;27;20096;-47
2023/03/05 16:49:03;;;;;;;13.80;8.30;;;;;;;;;;5125882;27;20008;-46
2023/03/05 16:51:29;;;;;;;13.02;8.05;;;;;;;;;;5122245;27;20442;-46
2023/03/05 16:53:56;;;;;;;14.68;8.20;;;;;;;;;;5123436;27;20467;-46
2023/03/05 16:56:22;;;;;;;16.08;9.02;;;;;;;;;;5125619;27;20050;-46
2023/03/05 16:58:48;;;;;;;14.82;8.68;;;;;;;;;;5125309;27;20038;-48
2023/03/05 17:01:16;;;;;;;14.45;8.75;;;;;;;;;;5125099;27;20059;-46
2023/03/05 17:03:43;;;;;;;15.52;8.40;;;;;;;;;;5124918;27;20084;-46
2023/03/05 17:06:17;;;;;;;16.00;9.35;;;;;;;;;;5125279;27;20051;-46
2023/03/05 17:08:43;;;;;;;16.37;9.37;;;;;;;;;;5124516;27;20119;-46
2023/03/05 17:11:10;;;;;;;17.63;9.27;;;;;;;;;;5125801;27;20027;-48
2023/03/05 17:13:36;;;;;;;24.77;13.55;;;;;;;;;;5119654;27;20117;-45
2023/03/05 17:16:03;;;;;;;21.92;13.25;;;;;;;;;;5119793;27;20529;-45
2023/03/05 17:18:29;;;;;;;21.00;11.70;;;;;;;;;;5123934;27;20549;-46
2023/03/05 17:20:55;;;;;;;24.52;13.30;;;;;;;;;;5121242;27;20098;-45
2023/03/05 17:23:21;;;;;;;20.98;12.73;;;;;;;;;;5127160;27;20035;-46
2023/03/05 17:25:47;;;;;;;24.23;13.32;;;;;;;;;;5125939;27;20100;-46
2023/03/05 17:28:13;;;;;;;21.23;11.05;;;;;;;;;;5127907;27;20666;-45
2023/03/05 17:30:39;;;;;;;22.70;11.48;;;;;;;;;;5127728;27;20019;-45
2023/03/05 17:33:06;;;;;;;21.20;11.32;;;;;;;;;;5125334;27;20024;-47
2023/03/05 17:35:33;;;;;;;19.45;9.55;;;;;;;;;;5126384;27;20467;-46
2023/03/05 17:38:01;;;;;;;15.98;8.82;;;;;;;;;;5125099;27;20031;-46
2023/03/05 17:40:27;;;;;;;18.48;9.57;;;;;;;;;;5125754;27;20036;-46
2023/03/05 17:42:54;;;;;;;17.73;9.25;;;;;;;;;;5125881;27;20131;-46
2023/03/05 17:45:20;;;;;;;16.42;9.07;;;;;;;;;;5118982;27;20114;-45
2023/03/05 17:47:46;;;;;;;18.60;9.52;;;;;;;;;;5126911;27;20041;-46
2023/03/05 17:50:13;;;;;;;15.95;8.70;;;;;;;;;;5125960;27;20060;-45
2023/03/05 17:52:40;;;;;;;15.15;8.75;;;;;;;;;;5124864;27;20417;-47
2023/03/05 17:55:08;;;;;;;15.30;9.38;;;;;;;;;;5125112;27;20129;-48
2023/03/05 17:57:40;;;;;;;16.65;9.23;;;;;;;;;;5125911;27;20038;-45
2023/03/05 18:00:07;;;;;;;21.50;12.25;;;;;;;;;;5125305;27;20031;-45
2023/03/05 18:02:33;;;;;;;19.90;11.77;;;;;;;;;;5125862;27;20034;-46
2023/03/05 18:05:00;;;;;;;20.90;11.85;;;;;;;;;;5125088;27;20034;-45
2023/03/05 18:07:25;;;;;;;19.40;11.10;;;;;;;;;;5125014;27;20030;-45
2023/03/05 18:09:52;;;;;;;22.98;10.85;;;;;;;;;;5124095;27;20269;-45
2023/03/05 18:12:18;;;;;;;16.00;8.95;;;;;;;;;;5122556;27;20470;-47
2023/03/05 18:14:45;;;;;;;17.02;9.45;;;;;;;;;;5105413;28;20031;-45
2023/03/05 18:17:11;;;;;;;20.95;10.80;;;;;;;;;;5104897;28;20043;-45
2023/03/05 18:19:36;;;;;;;15.98;9.13;;;;;;;;;;5104445;28;20031;-45
2023/03/05 18:22:02;;;;;;;14.48;8.88;;;;;;;;;;5104007;28;20046;-49
2023/03/05 18:24:28;;;;;;;18.25;8.93;;;;;;;;;;5104968;28;20111;-44
2023/03/05 18:26:54;;;;;;;13.23;7.50;;;;;;;;;;5103931;28;20486;-45
2023/03/05 18:29:20;;;;;;;14.52;7.70;;;;;;;;;;5103972;28;20028;-45
2023/03/05 18:31:46;;;;;;;13.82;8.02;;;;;;;;;;5103356;28;20382;-45
2023/03/05 18:34:12;;;;;;;16.80;8.50;;;;;;;;;;5102583;28;20052;-45
2023/03/05 18:36:39;;;;;;;13.30;6.78;;;;;;;;;;5103056;28;20049;-45
2023/03/05 18:39:05;;;;;;;17.15;9.00;;;;;;;;;;5101122;28;20027;-46
2023/03/05 18:41:31;;;;;;;16.58;8.82;;;;;;;;;;5103429;28;20068;-45
2023/03/05 18:43:58;;;;;;;15.25;7.90;;;;;;;;;;5103430;28;20031;-46
2023/03/05 18:46:25;;;;;;;14.68;7.80;;;;;;;;;;5104131;28;20083;-45
2023/03/05 18:48:50;;;;;;;12.57;7.72;;;;;;;;;;5104246;28;20031;-45
2023/03/05 18:51:20;;;;;;;14.95;7.72;;;;;;;;;;5104836;28;20036;-48
2023/03/05 18:53:47;;;;;;;14.30;8.00;;;;;;;;;;5101686;28;20051;-45
2023/03/05 18:56:14;;;;;;;14.07;8.00;;;;;;;;;;5103025;28;20487;-44
2023/03/05 18:58:40;;;;;;;15.77;8.52;;;;;;;;;;5104719;28;20050;-49
2023/03/05 19:01:08;;;;;;;15.65;8.38;;;;;;;;;;5109152;28;20496;-46
2023/03/05 19:03:34;;;;;;;16.50;8.77;;;;;;;;;;5104094;28;20108;-45
2023/03/05 19:05:59;;;;;;;18.30;8.95;;;;;;;;;;5103806;28;20061;-47
2023/03/05 19:08:26;;;;;;;18.58;10.00;;;;;;;;;;5103825;28;20398;-46
2023/03/05 19:10:52;;;;;;;19.13;9.80;;;;;;;;;;5102642;28;20594;-46
2023/03/05 19:13:38;;;;;;;18.40;10.25;;;;;;;;;;5102982;28;20935;-45
2023/03/05 19:16:08;;;;;;;18.45;10.88;;;;;;;;;;5102528;28;20031;-45
2023/03/05 19:18:40;;;;;;;21.77;11.98;;;;;;;;;;5104235;28;20095;-49
2023/03/05 19:21:07;;;;;;;20.75;11.73;;;;;;;;;;5099674;28;20023;-46
2023/03/05 19:23:33;;;;;;;21.60;11.85;;;;;;;;;;5106465;28;20514;-49
2023/03/05 19:26:00;;;;;;;22.02;11.77;;;;;;;;;;5094826;28;20498;-48
2023/03/05 19:28:28;;;;;;;24.08;11.68;;;;;;;;;;5108282;28;20028;-46
2023/03/05 19:30:55;;;;;;;20.35;11.50;;;;;;;;;;5107827;28;20036;-46
2023/03/05 19:33:21;;;;;;;19.90;11.50;;;;;;;;;;5107576;28;20019;-46
2023/03/05 19:35:48;;;;;;;20.20;11.43;;;;;;;;;;5105535;28;20096;-47
2023/03/05 19:38:15;;;;;;;18.77;9.77;;;;;;;;;;5107739;28;20034;-44
2023/03/05 19:40:41;;;;;;;19.33;10.60;;;;;;;;;;5107293;28;20036;-47
2023/03/05 19:43:08;;;;;;;20.10;10.73;;;;;;;;;;5108168;28;20034;-44
2023/03/05 19:45:34;;;;;;;19.23;9.82;;;;;;;;;;5107637;28;20042;-45
2023/03/05 19:48:01;;;;;;;18.80;9.90;;;;;;;;;;5107562;28;20378;-45
2023/03/05 19:50:27;;;;;;;22.13;10.57;;;;;;;;;;5106878;28;20027;-44
2023/03/05 19:52:53;;;;;;;21.33;11.02;;;;;;;;;;5106836;28;20028;-47
2023/03/05 19:55:20;;;;;;;22.20;10.98;;;;;;;;;;5107702;28;20027;-45
2023/03/05 19:57:46;;;;;;;20.88;10.50;;;;;;;;;;5106015;28;20100;-48
2023/03/05 20:00:12;;;;;;;22.90;11.38;;;;;;;;;;5107005;28;20032;-44
2023/03/05 20:02:38;;;;;;;19.80;10.73;;;;;;;;;;5107070;28;20696;-46
2023/03/05 20:05:04;;;;;;;18.27;9.50;;;;;;;;;;5107540;28;20108;-46
2023/03/05 20:07:30;;;;;;;20.95;9.85;;;;;;;;;;5106974;28;20154;-46
2023/03/05 20:09:56;;;;;;;18.95;9.98;;;;;;;;;;5107842;28;20106;-46
2023/03/05 20:12:22;;;;;;;17.15;8.65;;;;;;;;;;5089224;28;20696;-45
2023/03/05 20:14:48;;;;;;;17.20;9.40;;;;;;;;;;5107449;28;20418;-46
2023/03/05 20:17:15;;;;;;;17.48;8.65;;;;;;;;;;5106989;28;20400;-44
2023/03/05 20:19:41;;;;;;;18.02;9.60;;;;;;;;;;5105579;28;20049;-45
2023/03/05 20:22:08;;;;;;;21.23;9.75;;;;;;;;;;5106245;28;20422;-45
2023/03/05 20:24:36;;;;;;;18.88;11.48;;;;;;;;;;5106827;28;20035;-46
2023/03/05 20:27:02;;;;;;;18.10;10.10;;;;;;;;;;5106768;28;20046;-45
2023/03/05 20:29:28;;;;;;;19.77;10.70;;;;;;;;;;5106813;28;20073;-44
2023/03/05 20:31:55;;;;;;;20.27;10.57;;;;;;;;;;5106121;28;20466;-45
2023/03/05 20:34:21;;;;;;;20.13;10.48;;;;;;;;;;5106945;28;20024;-46
2023/03/05 20:36:48;;;;;;;23.58;10.82;;;;;;;;;;5106213;28;20032;-46
2023/03/05 20:39:14;;;;;;;22.38;11.15;;;;;;;;;;5104642;28;20496;-45
2023/03/05 20:41:40;;;;;;;22.23;10.15;;;;;;;;;;5106326;28;20027;-44
2023/03/05 20:44:10;;;;;;;19.55;9.50;;;;;;;;;;5105281;28;20043;-44